Time;durP1;ratioP1;P1;durP2;ratioP2;P2;SDS_P1;SDS_P2;PMS_P1;PMS_P2;Temp;Humidity;BMP_temperature;BMP_pressure;BME280_temperature;BME280_humidity;BME280_pressure;Samples;Min_cycle;Max_cycle;Signal;HPM_P1;HPM_P2
2022/10/31 00:02:07;;;;;;;17.43;12.07;;;15.00;99.90;;;;;;4980563;29;20504;-54
2022/10/31 00:04:34;;;;;;;17.70;12.47;;;15.00;99.90;;;;;;4975797;29;20447;-55
2022/10/31 00:07:01;;;;;;;19.20;12.67;;;15.00;99.90;;;;;;4969038;29;20471;-51
2022/10/31 00:09:28;;;;;;;18.43;12.87;;;15.00;99.90;;;;;;4980187;29;20448;-51
2022/10/31 00:11:54;;;;;;;21.07;11.40;;;15.00;99.90;;;;;;4979568;29;20503;-53
2022/10/31 00:14:21;;;;;;;16.70;12.20;;;15.00;99.90;;;;;;4979741;29;20561;-53
2022/10/31 00:16:49;;;;;;;15.70;11.43;;;15.00;99.90;;;;;;4966421;29;20452;-53
2022/10/31 00:19:16;;;;;;;22.03;13.60;;;15.00;99.90;;;;;;4971273;29;20454;-54
2022/10/31 00:21:43;;;;;;;21.60;12.00;;;15.00;99.90;;;;;;4975517;29;20490;-50
2022/10/31 00:24:11;;;;;;;18.73;11.77;;;15.00;99.90;;;;;;4980427;29;20496;-52
2022/10/31 00:26:47;;;;;;;19.30;11.67;;;15.00;99.90;;;;;;4970163;29;20455;-56
2022/10/31 00:29:14;;;;;;;22.40;12.87;;;14.90;99.90;;;;;;4980186;29;20431;-53
2022/10/31 00:31:40;;;;;;;16.70;11.50;;;14.90;99.90;;;;;;4979897;29;20439;-45
2022/10/31 00:34:09;;;;;;;18.50;13.40;;;14.90;99.90;;;;;;4980015;29;20434;-47
2022/10/31 00:36:35;;;;;;;15.70;10.83;;;14.90;99.90;;;;;;4970500;29;20447;-51
2022/10/31 00:39:02;;;;;;;15.40;10.83;;;14.80;99.90;;;;;;4974006;29;20471;-49
2022/10/31 00:41:29;;;;;;;15.37;11.40;;;14.80;99.90;;;;;;4980107;29;20516;-50
2022/10/31 00:43:56;;;;;;;15.43;11.00;;;14.80;99.90;;;;;;4966262;29;20942;-55
2022/10/31 00:46:23;;;;;;;12.30;10.23;;;14.70;99.90;;;;;;4977280;29;20431;-47
2022/10/31 00:48:50;;;;;;;20.80;12.00;;;14.70;99.90;;;;;;4979354;28;20440;-51
2022/10/31 00:51:18;;;;;;;21.87;11.60;;;14.70;99.90;;;;;;4979141;29;20466;-49
2022/10/31 00:53:45;;;;;;;18.00;11.40;;;14.60;99.90;;;;;;4965360;29;20452;-53
2022/10/31 00:56:12;;;;;;;14.80;10.47;;;14.60;99.90;;;;;;4979878;29;20523;-51
2022/10/31 00:58:39;;;;;;;14.53;10.07;;;14.50;99.90;;;;;;4979734;29;20488;-53
2022/10/31 01:01:06;;;;;;;16.80;10.70;;;14.50;99.90;;;;;;4979044;29;20442;-50
2022/10/31 01:03:38;;;;;;;14.93;9.73;;;14.50;99.90;;;;;;4979038;29;20519;-47
2022/10/31 01:06:07;;;;;;;17.93;10.90;;;14.50;99.90;;;;;;4978728;29;20420;-52
2022/10/31 01:08:37;;;;;;;12.93;9.87;;;14.40;99.90;;;;;;4979098;29;20424;-51
2022/10/31 01:11:07;;;;;;;17.37;9.90;;;14.40;99.90;;;;;;4979166;29;20523;-49
2022/10/31 01:13:35;;;;;;;12.90;10.40;;;14.30;99.90;;;;;;4978823;29;20443;-52
2022/10/31 01:16:02;;;;;;;13.63;10.33;;;14.30;99.90;;;;;;4978764;29;20555;-53
2022/10/31 01:18:30;;;;;;;11.20;9.80;;;14.30;99.90;;;;;;4979292;29;20485;-48
2022/10/31 01:21:02;;;;;;;17.37;9.20;;;14.20;99.90;;;;;;4978842;29;20515;-56
2022/10/31 01:23:30;;;;;;;20.57;10.63;;;14.20;99.90;;;;;;4978362;29;20499;-53
2022/10/31 01:26:03;;;;;;;15.50;10.00;;;14.20;99.90;;;;;;4978405;29;20552;-53
2022/10/31 01:28:30;;;;;;;15.93;9.87;;;14.20;99.90;;;;;;4978709;29;20520;-53
2022/10/31 01:31:01;;;;;;;23.80;11.77;;;14.10;99.90;;;;;;4978492;29;20427;-46
2022/10/31 01:33:34;;;;;;;13.00;10.60;;;14.10;99.90;;;;;;4978338;29;20436;-47
2022/10/31 01:36:01;;;;;;;14.30;8.97;;;14.10;99.90;;;;;;4969298;29;20743;-54
2022/10/31 01:38:28;;;;;;;12.47;9.93;;;14.10;99.90;;;;;;4974656;29;20464;-50
2022/10/31 01:40:54;;;;;;;18.97;10.53;;;14.10;99.90;;;;;;4979184;29;20539;-44
2022/10/31 01:43:42;;;;;;;16.27;11.47;;;14.00;99.90;;;;;;4979368;29;20428;-51
2022/10/31 01:46:09;;;;;;;17.80;10.00;;;14.00;99.90;;;;;;4972643;29;20471;-54
2022/10/31 01:48:35;;;;;;;13.23;8.93;;;14.00;99.90;;;;;;4969137;29;20448;-52
2022/10/31 01:51:04;;;;;;;13.87;10.17;;;13.90;99.90;;;;;;4979111;29;20436;-51
2022/10/31 01:53:32;;;;;;;11.67;9.40;;;14.00;99.90;;;;;;4978805;29;20448;-54
2022/10/31 01:56:02;;;;;;;20.17;10.90;;;13.90;99.90;;;;;;4977846;29;20511;-53
2022/10/31 01:58:35;;;;;;;14.03;9.87;;;13.90;99.90;;;;;;4977491;29;20500;-60
2022/10/31 02:01:03;;;;;;;11.17;9.30;;;14.00;99.90;;;;;;4977856;28;20456;-56
2022/10/31 02:03:31;;;;;;;17.40;9.33;;;13.90;99.90;;;;;;4978627;29;20476;-52
2022/10/31 02:05:59;;;;;;;16.17;10.30;;;13.90;99.90;;;;;;4978508;29;20443;-51
2022/10/31 02:08:28;;;;;;;15.07;8.50;;;13.80;99.90;;;;;;4963247;29;20440;-49
2022/10/31 02:10:57;;;;;;;14.40;8.67;;;13.80;99.90;;;;;;4978137;29;20472;-53
2022/10/31 02:13:24;;;;;;;21.80;12.10;;;13.80;99.90;;;;;;4978282;29;20454;-46
2022/10/31 02:15:54;;;;;;;17.33;9.00;;;13.70;99.90;;;;;;4978141;29;20458;-48
2022/10/31 02:18:29;;;;;;;18.23;9.73;;;13.80;99.90;;;;;;4962993;29;20494;-53
2022/10/31 02:21:05;;;;;;;10.03;7.83;;;13.80;99.90;;;;;;4978380;29;20507;-54
2022/10/31 02:24:08;;;;;;;12.23;8.13;;;13.70;99.90;;;;;;4976771;29;20467;-55
2022/10/31 02:26:57;;;;;;;12.83;10.73;;;13.70;99.90;;;;;;4954986;29;20446;-48
2022/10/31 02:29:55;;;;;;;19.00;11.13;;;13.70;99.90;;;;;;4976726;29;20478;-52
2022/10/31 02:32:30;;;;;;;19.50;9.50;;;13.70;99.90;;;;;;4962149;29;20440;-55
2022/10/31 02:35:05;;;;;;;11.30;8.40;;;13.60;99.90;;;;;;4977934;29;20467;-51
2022/10/31 02:37:42;;;;;;;15.80;8.43;;;13.60;99.90;;;;;;4977594;29;20424;-53
2022/10/31 02:40:16;;;;;;;10.73;7.57;;;13.60;99.90;;;;;;4976600;29;20438;-51
2022/10/31 02:42:51;;;;;;;17.17;10.37;;;13.50;99.90;;;;;;4976594;29;20432;-53
2022/10/31 02:45:27;;;;;;;15.50;9.33;;;13.50;99.90;;;;;;4977534;29;20418;-52
2022/10/31 02:48:09;;;;;;;17.80;9.10;;;13.50;99.90;;;;;;4978017;29;20498;-52
2022/10/31 02:50:43;;;;;;;14.20;11.03;;;13.50;99.90;;;;;;4977470;29;20472;-51
2022/10/31 02:53:10;;;;;;;13.03;9.63;;;13.60;99.90;;;;;;4977549;29;20535;-53
2022/10/31 02:55:53;;;;;;;12.23;10.13;;;13.50;99.90;;;;;;4977105;29;20523;-55
2022/10/31 02:58:26;;;;;;;12.20;9.70;;;13.50;99.90;;;;;;4977789;29;20468;-49
2022/10/31 03:01:22;;;;;;;16.43;9.73;;;13.50;99.90;;;;;;4967215;29;20443;-49
2022/10/31 03:04:14;;;;;;;19.40;10.30;;;13.50;99.90;;;;;;4977857;29;20535;-47
2022/10/31 03:06:49;;;;;;;13.17;10.50;;;13.50;99.90;;;;;;4977652;29;20448;-48
2022/10/31 03:09:24;;;;;;;16.43;9.53;;;13.50;99.90;;;;;;4977857;29;20470;-56
2022/10/31 03:11:58;;;;;;;16.10;8.83;;;13.60;99.90;;;;;;4977374;28;20475;-56
2022/10/31 03:14:35;;;;;;;15.67;9.10;;;13.60;99.90;;;;;;4977535;29;20424;-50
2022/10/31 03:17:08;;;;;;;15.60;9.80;;;13.60;99.90;;;;;;4970318;29;20481;-53
2022/10/31 03:19:41;;;;;;;15.73;9.50;;;13.50;99.90;;;;;;4969095;29;20468;-53
2022/10/31 03:22:16;;;;;;;11.73;8.70;;;13.50;99.90;;;;;;4976564;29;20456;-48
2022/10/31 03:24:44;;;;;;;12.63;9.47;;;13.60;99.90;;;;;;4975896;29;20523;-51
2022/10/31 03:27:15;;;;;;;13.60;8.40;;;13.60;99.90;;;;;;4976744;29;20507;-50
2022/10/31 03:29:48;;;;;;;14.77;9.70;;;13.50;99.90;;;;;;4977113;29;20527;-51
2022/10/31 03:32:20;;;;;;;14.23;10.13;;;13.50;99.90;;;;;;4977663;29;20519;-53
2022/10/31 03:34:50;;;;;;;12.30;8.90;;;13.50;99.90;;;;;;4977120;29;20424;-55
2022/10/31 03:37:24;;;;;;;10.60;8.40;;;13.50;99.90;;;;;;4976857;29;20470;-61
2022/10/31 03:39:51;;;;;;;11.67;7.77;;;13.50;99.90;;;;;;4977570;29;20495;-52
2022/10/31 03:42:25;;;;;;;18.97;9.30;;;13.50;99.90;;;;;;4976856;29;20475;-54
2022/10/31 03:44:56;;;;;;;16.77;8.83;;;13.50;99.90;;;;;;4977370;29;20447;-47
2022/10/31 03:47:25;;;;;;;19.63;10.13;;;13.50;99.90;;;;;;4977257;29;20470;-52
2022/10/31 03:49:54;;;;;;;18.67;10.70;;;13.50;99.90;;;;;;4975837;29;20440;-53
2022/10/31 03:52:29;;;;;;;16.63;9.97;;;13.50;99.90;;;;;;4976685;29;20443;-50
2022/10/31 03:55:01;;;;;;;12.87;9.10;;;13.60;99.90;;;;;;4977091;29;20488;-52
2022/10/31 03:57:37;;;;;;;15.93;8.40;;;13.60;99.90;;;;;;4977038;29;20508;-49
2022/10/31 04:00:07;;;;;;;11.97;8.20;;;13.60;99.90;;;;;;4977217;29;20518;-52
2022/10/31 04:02:39;;;;;;;12.10;8.00;;;13.60;99.90;;;;;;4976769;29;20428;-55
2022/10/31 04:05:09;;;;;;;15.43;8.97;;;13.60;99.90;;;;;;4977099;29;20428;-49
2022/10/31 04:07:40;;;;;;;21.90;9.40;;;13.60;99.90;;;;;;4977313;29;20428;-52
2022/10/31 04:10:10;;;;;;;14.73;9.50;;;13.50;99.90;;;;;;4977714;29;20439;-60
2022/10/31 04:12:39;;;;;;;17.10;11.03;;;13.50;99.90;;;;;;4976548;29;20472;-51
2022/10/31 04:15:08;;;;;;;16.70;8.97;;;13.60;99.90;;;;;;4977686;29;20491;-49
2022/10/31 04:17:39;;;;;;;11.17;8.87;;;13.60;99.90;;;;;;4977009;29;20463;-57
2022/10/31 04:20:12;;;;;;;11.57;8.50;;;13.50;99.90;;;;;;4976886;28;20475;-53
2022/10/31 04:22:39;;;;;;;16.33;9.87;;;13.50;99.90;;;;;;4976836;29;20478;-50
2022/10/31 04:25:07;;;;;;;15.50;9.40;;;13.50;99.90;;;;;;4977555;28;20468;-50
2022/10/31 04:27:34;;;;;;;16.83;9.60;;;13.50;99.90;;;;;;4965190;29;20452;-58
2022/10/31 04:30:05;;;;;;;13.13;8.43;;;13.40;99.90;;;;;;4979662;29;20471;-58
2022/10/31 04:32:32;;;;;;;14.37;8.63;;;13.40;99.90;;;;;;4978595;29;20420;-53
2022/10/31 04:34:58;;;;;;;13.77;10.10;;;13.40;99.90;;;;;;4965823;29;20451;-48
2022/10/31 04:37:27;;;;;;;12.47;8.37;;;13.40;99.90;;;;;;4964568;29;20467;-56
2022/10/31 04:39:53;;;;;;;14.17;9.63;;;13.40;99.90;;;;;;4979290;29;20475;-56
2022/10/31 04:42:20;;;;;;;14.50;9.70;;;13.40;99.90;;;;;;4978849;29;20478;-54
2022/10/31 04:44:47;;;;;;;11.87;9.57;;;13.30;99.90;;;;;;4978458;29;20508;-55
2022/10/31 04:47:14;;;;;;;17.17;8.63;;;13.30;99.90;;;;;;4978581;29;20472;-52
2022/10/31 04:49:40;;;;;;;13.07;8.20;;;13.30;99.90;;;;;;4979591;29;20554;-54
2022/10/31 04:52:08;;;;;;;11.13;8.50;;;13.30;99.90;;;;;;4978617;29;20458;-46
2022/10/31 04:54:36;;;;;;;20.17;9.23;;;13.30;99.90;;;;;;4980221;29;20475;-47
2022/10/31 04:57:02;;;;;;;21.00;9.50;;;13.30;99.90;;;;;;4980107;29;20440;-47
2022/10/31 04:59:29;;;;;;;20.20;9.63;;;13.30;99.90;;;;;;4979431;29;20487;-54
2022/10/31 05:01:56;;;;;;;14.37;9.37;;;13.30;99.90;;;;;;4979502;29;20543;-54
2022/10/31 05:04:23;;;;;;;13.87;8.43;;;13.30;99.90;;;;;;4979106;29;20452;-53
2022/10/31 05:06:50;;;;;;;17.40;8.73;;;13.30;99.90;;;;;;4979841;29;20452;-53
2022/10/31 05:09:16;;;;;;;12.07;8.80;;;13.20;99.90;;;;;;4979874;29;20428;-52
2022/10/31 05:11:45;;;;;;;13.60;8.77;;;13.30;99.90;;;;;;4979493;29;20451;-54
2022/10/31 05:14:13;;;;;;;24.63;10.67;;;13.20;99.90;;;;;;4978928;29;20503;-51
2022/10/31 05:16:40;;;;;;;10.50;9.27;;;13.20;99.90;;;;;;4978194;29;20519;-52
2022/10/31 05:19:07;;;;;;;19.60;8.80;;;13.20;99.90;;;;;;4978485;29;20479;-50
2022/10/31 05:21:34;;;;;;;19.77;8.97;;;13.20;99.90;;;;;;4978164;29;20527;-52
2022/10/31 05:24:01;;;;;;;11.30;8.40;;;13.20;99.90;;;;;;4977691;29;20427;-47
2022/10/31 05:26:27;;;;;;;18.03;9.40;;;13.30;99.90;;;;;;4979512;29;20440;-49
2022/10/31 05:28:55;;;;;;;13.97;8.67;;;13.30;99.90;;;;;;4979324;29;20430;-49
2022/10/31 05:31:22;;;;;;;15.80;9.77;;;13.20;99.90;;;;;;4979228;29;20464;-51
2022/10/31 05:33:49;;;;;;;19.57;8.33;;;13.20;99.90;;;;;;4979158;29;20440;-54
2022/10/31 05:36:16;;;;;;;17.57;9.40;;;13.30;99.90;;;;;;4979361;28;20448;-51
2022/10/31 05:38:42;;;;;;;11.73;9.77;;;13.20;99.90;;;;;;4978969;29;20480;-53
2022/10/31 05:41:10;;;;;;;14.77;8.73;;;13.30;99.90;;;;;;4979057;29;20451;-48
2022/10/31 05:43:36;;;;;;;16.00;9.27;;;13.20;99.90;;;;;;4979100;29;20484;-52
2022/10/31 05:46:05;;;;;;;13.00;7.70;;;13.20;99.90;;;;;;4978904;29;20748;-46
2022/10/31 05:48:32;;;;;;;11.20;8.23;;;13.10;99.90;;;;;;4965310;29;20451;-54
2022/10/31 05:50:58;;;;;;;13.00;8.70;;;13.10;99.90;;;;;;4978892;29;20467;-51
2022/10/31 05:53:25;;;;;;;17.60;8.83;;;13.10;99.90;;;;;;4978855;29;20499;-53
2022/10/31 05:55:52;;;;;;;12.00;8.43;;;13.10;99.90;;;;;;4978809;29;20468;-50
2022/10/31 05:58:19;;;;;;;13.10;9.20;;;13.20;99.90;;;;;;4978852;29;20834;-54
2022/10/31 06:00:46;;;;;;;13.37;8.10;;;13.20;99.90;;;;;;4978359;29;20493;-54
2022/10/31 06:03:14;;;;;;;16.17;9.67;;;13.20;99.90;;;;;;4978526;29;20487;-56
2022/10/31 06:05:41;;;;;;;13.40;9.80;;;13.20;99.90;;;;;;4978521;29;20483;-50
2022/10/31 06:08:07;;;;;;;13.00;8.93;;;13.10;99.90;;;;;;4977959;29;20472;-54
2022/10/31 06:10:34;;;;;;;11.90;8.63;;;13.10;99.90;;;;;;4978107;29;20423;-49
2022/10/31 06:13:01;;;;;;;15.13;10.10;;;13.10;99.90;;;;;;4978536;29;20451;-52
2022/10/31 06:15:28;;;;;;;13.17;8.40;;;13.10;99.90;;;;;;4978280;29;20447;-47
2022/10/31 06:18:02;;;;;;;15.03;8.67;;;13.00;99.90;;;;;;4978469;29;20458;-47
2022/10/31 06:20:30;;;;;;;12.27;8.40;;;13.00;99.90;;;;;;4962363;29;20490;-52
2022/10/31 06:22:57;;;;;;;13.70;8.50;;;13.00;99.90;;;;;;4978448;29;20946;-50
2022/10/31 06:25:24;;;;;;;11.20;8.53;;;13.00;99.90;;;;;;4978431;29;20450;-51
2022/10/31 06:27:51;;;;;;;17.47;9.30;;;13.00;99.90;;;;;;4978120;29;20432;-48
2022/10/31 06:30:18;;;;;;;13.17;8.80;;;13.00;99.90;;;;;;4965765;29;20448;-53
2022/10/31 06:32:45;;;;;;;11.40;9.10;;;13.10;99.90;;;;;;4975578;29;20472;-49
2022/10/31 06:35:12;;;;;;;14.80;8.27;;;13.10;99.90;;;;;;4977098;29;20459;-51
2022/10/31 06:37:40;;;;;;;16.17;9.47;;;13.10;99.90;;;;;;4977928;29;20460;-52
2022/10/31 06:40:07;;;;;;;14.83;8.10;;;13.10;99.90;;;;;;4977871;29;20472;-54
2022/10/31 06:42:34;;;;;;;9.50;8.50;;;13.10;99.90;;;;;;4977290;29;20508;-52
2022/10/31 06:45:01;;;;;;;18.27;10.33;;;13.20;99.90;;;;;;4977730;29;20468;-55
2022/10/31 06:47:27;;;;;;;13.63;8.53;;;13.20;99.90;;;;;;4977222;28;20452;-54
2022/10/31 06:49:54;;;;;;;15.10;9.40;;;13.20;99.90;;;;;;4976057;29;20470;-52
2022/10/31 06:52:23;;;;;;;13.50;9.03;;;13.30;99.90;;;;;;4976757;29;20475;-54
2022/10/31 06:54:51;;;;;;;17.43;9.73;;;13.30;99.90;;;;;;4976290;29;20432;-51
2022/10/31 06:57:18;;;;;;;12.93;8.40;;;13.30;99.90;;;;;;4975962;29;20472;-53
2022/10/31 06:59:45;;;;;;;16.37;7.70;;;13.40;99.90;;;;;;4977686;29;20506;-56
2022/10/31 07:02:12;;;;;;;14.53;8.60;;;13.40;99.90;;;;;;4977735;29;20547;-56
2022/10/31 07:04:38;;;;;;;15.60;8.47;;;13.40;99.90;;;;;;4977827;29;20428;-55
2022/10/31 07:07:05;;;;;;;11.57;8.57;;;13.50;99.90;;;;;;4977540;29;20511;-54
2022/10/31 07:09:32;;;;;;;12.17;8.30;;;13.50;99.90;;;;;;4977688;29;20455;-53
2022/10/31 07:12:00;;;;;;;16.10;9.07;;;13.60;99.90;;;;;;4976832;29;20460;-53
2022/10/31 07:14:27;;;;;;;17.90;8.77;;;13.60;99.90;;;;;;4976803;29;20502;-62
2022/10/31 07:16:54;;;;;;;12.97;9.27;;;13.70;99.90;;;;;;4977130;29;20487;-53
2022/10/31 07:19:20;;;;;;;16.10;8.70;;;13.70;99.90;;;;;;4963856;29;20487;-54
2022/10/31 07:21:47;;;;;;;12.23;8.30;;;13.80;99.90;;;;;;4975011;29;20456;-52
2022/10/31 07:24:14;;;;;;;17.23;9.40;;;13.90;99.90;;;;;;4977312;29;20440;-47
2022/10/31 07:26:42;;;;;;;15.03;8.57;;;13.90;99.90;;;;;;4977065;29;20474;-52
2022/10/31 07:29:10;;;;;;;14.63;9.33;;;14.00;99.90;;;;;;4977954;28;20431;-56
2022/10/31 07:31:37;;;;;;;15.97;8.10;;;14.10;99.90;;;;;;4977969;29;20452;-51
2022/10/31 07:34:03;;;;;;;17.80;8.87;;;14.20;99.90;;;;;;4961522;29;20523;-54
2022/10/31 07:36:30;;;;;;;12.53;7.80;;;14.30;99.90;;;;;;4977229;29;20483;-52
2022/10/31 07:38:58;;;;;;;12.77;8.70;;;14.40;99.90;;;;;;4977060;29;20539;-54
2022/10/31 07:41:24;;;;;;;16.80;9.83;;;14.50;99.90;;;;;;4976711;29;20442;-53
2022/10/31 07:43:51;;;;;;;12.10;9.10;;;14.70;99.90;;;;;;4976191;29;20440;-56
2022/10/31 07:46:19;;;;;;;16.43;10.30;;;14.90;99.90;;;;;;4977375;29;20451;-51
2022/10/31 07:48:46;;;;;;;14.50;8.70;;;15.10;99.90;;;;;;4976928;29;20450;-52
2022/10/31 07:51:13;;;;;;;18.00;10.00;;;15.30;99.90;;;;;;4976482;29;20464;-52
2022/10/31 07:53:40;;;;;;;13.27;9.30;;;15.50;99.90;;;;;;4976673;29;20439;-51
2022/10/31 07:56:07;;;;;;;20.07;8.70;;;15.60;99.90;;;;;;4976986;29;20462;-48
2022/10/31 07:58:33;;;;;;;14.40;9.10;;;15.70;99.90;;;;;;4977152;28;20442;-51
2022/10/31 08:01:00;;;;;;;18.40;10.30;;;15.80;99.90;;;;;;4969363;29;20490;-54
2022/10/31 08:03:28;;;;;;;15.93;9.50;;;15.90;99.90;;;;;;4979144;29;20478;-53
2022/10/31 08:05:55;;;;;;;15.93;8.77;;;16.10;99.90;;;;;;4980876;29;20921;-53
2022/10/31 08:08:23;;;;;;;23.57;12.43;;;16.10;99.90;;;;;;4980985;28;20531;-52
2022/10/31 08:10:50;;;;;;;18.20;12.10;;;16.20;99.90;;;;;;4980879;29;20555;-53
2022/10/31 08:13:17;;;;;;;14.27;10.63;;;16.30;99.90;;;;;;4980557;29;20466;-51
2022/10/31 08:15:49;;;;;;;23.43;10.93;;;16.30;99.90;;;;;;4981141;29;20467;-53
2022/10/31 08:18:16;;;;;;;21.10;12.80;;;16.30;99.90;;;;;;4980228;29;20447;-53
2022/10/31 08:20:44;;;;;;;17.60;10.80;;;16.30;99.90;;;;;;4980049;29;20493;-53
2022/10/31 08:23:12;;;;;;;18.20;11.00;;;16.30;99.90;;;;;;4980588;29;20450;-49
2022/10/31 08:25:39;;;;;;;14.53;10.70;;;16.30;99.90;;;;;;4980452;29;20501;-43
2022/10/31 08:28:07;;;;;;;14.07;10.97;;;16.40;99.90;;;;;;4980669;29;20539;-49
2022/10/31 08:30:36;;;;;;;19.50;11.83;;;16.50;99.90;;;;;;4980495;29;20439;-50
2022/10/31 08:33:04;;;;;;;22.77;11.60;;;16.50;99.90;;;;;;4980071;29;20487;-50
2022/10/31 08:35:30;;;;;;;19.43;12.17;;;16.40;99.90;;;;;;4980153;29;20499;-54
2022/10/31 08:37:59;;;;;;;22.70;12.77;;;16.50;99.90;;;;;;4980003;29;20454;-49
2022/10/31 08:40:27;;;;;;;21.67;12.20;;;16.50;99.90;;;;;;4979052;29;20555;-50
2022/10/31 08:42:59;;;;;;;18.80;11.80;;;16.40;99.90;;;;;;4979829;29;20456;-52
2022/10/31 08:45:26;;;;;;;16.73;11.47;;;16.40;99.90;;;;;;4980175;29;20428;-46
2022/10/31 08:47:53;;;;;;;22.90;13.33;;;16.50;99.90;;;;;;4979706;29;20444;-46
2022/10/31 08:50:20;;;;;;;19.77;11.63;;;16.50;99.90;;;;;;4979200;29;20484;-48
2022/10/31 08:52:46;;;;;;;22.23;11.80;;;16.50;99.90;;;;;;4979734;29;20467;-49
2022/10/31 08:55:15;;;;;;;20.30;12.43;;;16.50;99.90;;;;;;4979710;29;20424;-50
2022/10/31 08:57:41;;;;;;;15.53;9.87;;;16.50;99.90;;;;;;4980093;29;20507;-44
2022/10/31 09:00:09;;;;;;;18.80;11.47;;;16.50;99.90;;;;;;4979822;29;20464;-53
2022/10/31 09:02:38;;;;;;;15.93;11.30;;;16.60;99.90;;;;;;4979560;29;20479;-50
2022/10/31 09:05:05;;;;;;;16.90;11.00;;;16.60;99.90;;;;;;4979811;29;20526;-49
2022/10/31 09:07:32;;;;;;;22.90;12.87;;;16.60;99.90;;;;;;4979345;29;20447;-48
2022/10/31 09:09:59;;;;;;;23.00;12.97;;;16.70;99.90;;;;;;4979241;28;20448;-50
2022/10/31 09:12:27;;;;;;;24.17;12.70;;;16.70;99.90;;;;;;4979777;29;20459;-50
2022/10/31 09:14:54;;;;;;;26.23;13.30;;;16.80;99.90;;;;;;4978446;29;20448;-53
2022/10/31 09:17:21;;;;;;;18.30;12.77;;;17.00;99.90;;;;;;4977676;29;20947;-45
2022/10/31 09:19:48;;;;;;;19.40;12.63;;;17.20;99.90;;;;;;4977321;29;20525;-46
2022/10/31 09:22:15;;;;;;;18.67;11.80;;;17.30;99.90;;;;;;4978628;29;20440;-50
2022/10/31 09:24:42;;;;;;;26.33;12.33;;;17.40;99.90;;;;;;4978124;29;20452;-49
2022/10/31 09:27:09;;;;;;;19.73;12.70;;;17.70;99.90;;;;;;4977998;29;20479;-50
2022/10/31 09:29:37;;;;;;;18.87;12.20;;;18.00;99.90;;;;;;4977280;29;20475;-53
2022/10/31 09:32:04;;;;;;;16.80;12.53;;;18.50;99.90;;;;;;4978965;29;20443;-50
2022/10/31 09:34:31;;;;;;;22.13;12.80;;;19.20;99.90;;;;;;4979702;29;20446;-48
2022/10/31 09:36:57;;;;;;;18.70;11.13;;;20.00;99.90;;;;;;4978960;29;20454;-45
2022/10/31 09:39:24;;;;;;;12.80;10.93;;;20.50;99.90;;;;;;4978718;29;20462;-53
2022/10/31 09:42:10;;;;;;;19.87;12.43;;;21.20;99.90;;;;;;4978673;29;20508;-51
2022/10/31 09:44:50;;;;;;;17.73;12.30;;;21.70;99.90;;;;;;4979376;29;20442;-47
2022/10/31 09:47:25;;;;;;;19.57;10.80;;;21.80;99.90;;;;;;4978932;29;20464;-52
2022/10/31 09:50:07;;;;;;;17.40;10.97;;;21.90;99.90;;;;;;4978919;29;20412;-53
2022/10/31 09:52:37;;;;;;;30.33;16.67;;;22.10;99.90;;;;;;4979333;29;20424;-49
2022/10/31 09:55:13;;;;;;;24.00;12.23;;;22.30;99.90;;;;;;4978779;29;20957;-48
2022/10/31 09:57:42;;;;;;;20.50;13.53;;;22.00;99.90;;;;;;4978955;29;20843;-46
2022/10/31 10:00:17;;;;;;;23.30;13.00;;;21.40;99.90;;;;;;4966208;29;20510;-50
2022/10/31 10:02:50;;;;;;;16.30;12.77;;;20.70;99.90;;;;;;4964046;29;20427;-53
2022/10/31 10:05:20;;;;;;;22.33;13.60;;;20.10;99.90;;;;;;4976303;29;20428;-54
2022/10/31 10:07:56;;;;;;;17.80;12.50;;;19.60;99.90;;;;;;4962075;29;20436;-53
2022/10/31 10:10:32;;;;;;;18.83;12.27;;;19.30;99.90;;;;;;4978796;29;20420;-50
2022/10/31 10:13:16;;;;;;;21.70;13.07;;;19.40;99.90;;;;;;4978545;29;20459;-54
2022/10/31 10:16:01;;;;;;;20.30;11.40;;;19.70;99.90;;;;;;4979026;29;20451;-52
2022/10/31 10:18:39;;;;;;;17.87;11.90;;;20.00;99.90;;;;;;4978781;29;20531;-50
2022/10/31 10:21:20;;;;;;;24.67;12.77;;;20.40;99.90;;;;;;4979042;29;20467;-50
2022/10/31 10:23:58;;;;;;;18.27;11.50;;;20.50;99.90;;;;;;4978218;29;20428;-49
2022/10/31 10:26:35;;;;;;;28.97;12.30;;;20.30;99.90;;;;;;4978752;29;20420;-64
2022/10/31 10:29:08;;;;;;;16.90;12.00;;;20.10;99.90;;;;;;4979373;28;20459;-48
2022/10/31 10:31:41;;;;;;;23.63;11.43;;;19.80;99.90;;;;;;4978827;29;20537;-67
2022/10/31 10:34:18;;;;;;;23.87;13.47;;;19.50;99.90;;;;;;4978900;29;20416;-49
2022/10/31 10:36:49;;;;;;;21.37;11.80;;;19.20;99.90;;;;;;4978784;29;20464;-51
2022/10/31 10:39:19;;;;;;;23.53;13.00;;;19.00;99.90;;;;;;4978770;29;20440;-49
2022/10/31 10:47:40;;;;;;;18.57;11.90;;;19.40;99.90;;;;;;4978456;29;20435;-46
2022/10/31 10:50:12;;;;;;;24.77;14.17;;;19.70;99.90;;;;;;4978524;29;20459;-44
2022/10/31 10:52:48;;;;;;;19.20;12.70;;;20.10;99.90;;;;;;4978102;29;20468;-50
2022/10/31 10:55:24;;;;;;;22.97;12.10;;;20.40;99.90;;;;;;4978348;29;20463;-49
2022/10/31 10:57:57;;;;;;;21.20;12.77;;;20.80;99.90;;;;;;4978376;29;20439;-48
2022/10/31 11:00:25;;;;;;;23.40;15.03;;;21.00;99.90;;;;;;4978221;29;20484;-50
2022/10/31 11:02:54;;;;;;;25.47;14.37;;;21.10;99.90;;;;;;4978353;29;20448;-51
2022/10/31 11:05:34;;;;;;;19.30;13.00;;;21.00;99.90;;;;;;4978306;29;20458;-48
2022/10/31 11:08:00;;;;;;;19.87;13.33;;;20.90;99.90;;;;;;4971030;29;20550;-49
2022/10/31 11:10:27;;;;;;;23.37;13.37;;;20.50;99.90;;;;;;4967367;28;20495;-47
2022/10/31 11:13:15;;;;;;;21.10;12.40;;;20.40;99.90;;;;;;4978320;29;20444;-54
2022/10/31 11:15:52;;;;;;;21.30;12.40;;;20.20;99.90;;;;;;4977812;29;20931;-49
2022/10/31 11:18:24;;;;;;;22.07;13.27;;;20.10;99.90;;;;;;4978305;28;20510;-51
2022/10/31 11:20:53;;;;;;;25.10;14.13;;;20.00;99.90;;;;;;4960536;29;20505;-50
2022/10/31 11:23:21;;;;;;;21.20;14.30;;;19.90;99.90;;;;;;4964554;29;20458;-50
2022/10/31 11:25:53;;;;;;;21.60;13.77;;;19.80;99.90;;;;;;4970559;29;20448;-52
2022/10/31 11:28:20;;;;;;;23.10;14.43;;;19.70;99.90;;;;;;4963163;29;20459;-54
2022/10/31 11:30:52;;;;;;;23.50;14.77;;;19.60;99.90;;;;;;4978214;29;20515;-49
2022/10/31 11:33:28;;;;;;;26.60;15.17;;;19.50;99.90;;;;;;4978014;28;20538;-46
2022/10/31 11:35:59;;;;;;;27.43;15.23;;;19.50;99.90;;;;;;4981580;28;20444;-45
2022/10/31 11:38:33;;;;;;;32.07;13.90;;;19.40;99.90;;;;;;4967860;29;20432;-51
2022/10/31 11:41:10;;;;;;;25.40;15.47;;;19.40;99.90;;;;;;4975526;29;20476;-51
2022/10/31 11:43:37;;;;;;;19.23;12.03;;;19.40;99.90;;;;;;4978782;29;20447;-45
2022/10/31 11:46:10;;;;;;;24.07;13.40;;;19.40;99.90;;;;;;4982040;29;20491;-44
2022/10/31 11:48:39;;;;;;;19.23;12.70;;;19.40;99.90;;;;;;4981730;28;20426;-48
2022/10/31 11:51:06;;;;;;;27.10;14.57;;;19.50;99.90;;;;;;4981580;29;20492;-49
2022/10/31 11:53:35;;;;;;;19.80;14.00;;;19.60;99.90;;;;;;4981686;29;20446;-56
2022/10/31 11:56:05;;;;;;;122.03;71.47;;;19.50;99.90;;;;;;4981361;29;20527;-51
2022/10/31 11:58:33;;;;;;;27.57;18.30;;;19.60;99.90;;;;;;4981502;29;20467;-48
2022/10/31 12:01:00;;;;;;;30.00;19.50;;;19.60;99.90;;;;;;4973851;29;20581;-46
2022/10/31 12:03:43;;;;;;;26.10;15.70;;;19.60;99.90;;;;;;4974686;29;20451;-48
2022/10/31 12:06:15;;;;;;;25.23;15.27;;;19.60;99.90;;;;;;4981416;29;20420;-50
2022/10/31 12:08:43;;;;;;;22.83;14.73;;;19.60;99.90;;;;;;4967166;29;20447;-55
2022/10/31 12:11:22;;;;;;;25.97;17.30;;;19.60;99.90;;;;;;4977055;29;20467;-49
2022/10/31 12:14:03;;;;;;;30.73;14.80;;;19.70;99.90;;;;;;4981307;29;20450;-50
2022/10/31 12:16:35;;;;;;;25.93;15.20;;;19.70;99.90;;;;;;4981194;29;20475;-49
2022/10/31 12:19:06;;;;;;;22.50;15.53;;;19.80;99.90;;;;;;4981341;29;20444;-49
2022/10/31 12:21:57;;;;;;;21.77;13.27;;;19.80;99.90;;;;;;4973436;29;20487;-50
2022/10/31 12:24:46;;;;;;;30.80;16.33;;;19.90;99.90;;;;;;4977606;29;20420;-47
2022/10/31 12:27:25;;;;;;;29.10;14.47;;;19.90;99.90;;;;;;4980637;29;20472;-51
2022/10/31 12:30:13;;;;;;;22.40;14.80;;;20.00;99.90;;;;;;4980647;29;20467;-46
2022/10/31 12:32:54;;;;;;;25.23;14.00;;;20.10;99.90;;;;;;4980745;29;20429;-49
2022/10/31 12:35:41;;;;;;;29.53;14.13;;;20.10;99.90;;;;;;4980645;29;20554;-47
2022/10/31 12:38:24;;;;;;;26.90;15.87;;;20.20;99.90;;;;;;4969142;29;20431;-49
2022/10/31 12:41:27;;;;;;;25.80;15.00;;;20.30;99.90;;;;;;4980483;29;20467;-48
2022/10/31 12:44:01;;;;;;;19.60;15.67;;;20.40;99.90;;;;;;4956151;29;20419;-51
2022/10/31 12:46:44;;;;;;;34.50;15.17;;;20.40;99.90;;;;;;4979816;28;20432;-54
2022/10/31 12:49:21;;;;;;;22.17;14.80;;;20.40;99.90;;;;;;4980431;29;20456;-50
2022/10/31 12:52:01;;;;;;;25.77;15.10;;;20.40;99.90;;;;;;4980405;29;20496;-51
2022/10/31 12:54:54;;;;;;;32.27;17.37;;;20.40;99.90;;;;;;4962268;29;20471;-48